createdAt,value
2019-06-26T00:00:13.424Z,73.80
2019-06-26T00:01:13.410Z,74.19
2019-06-26T00:02:13.407Z,74.69
2019-06-26T00:03:13.390Z,74.39
2019-06-26T00:04:13.380Z,74.39
2019-06-26T00:05:13.390Z,74.49
2019-06-26T00:06:13.361Z,74.79
2019-06-26T00:07:13.347Z,74.79
2019-06-26T00:08:13.350Z,74.93
2019-06-26T00:09:13.329Z,72.50
2019-06-26T00:10:13.337Z,74.69
2019-06-26T00:11:13.306Z,74.39
2019-06-26T00:12:13.296Z,74.19
2019-06-26T00:13:25.719Z,72.20
2019-06-26T00:14:14.274Z,74.82
2019-06-26T00:15:13.284Z,74.93
2019-06-26T00:16:13.309Z,76.12
2019-06-26T00:17:13.252Z,75.92
2019-06-26T00:18:13.232Z,75.12
2019-06-26T00:19:13.225Z,75.82
2019-06-26T00:20:13.234Z,75.32
2019-06-26T00:21:13.204Z,74.82
2019-06-26T00:22:13.347Z,73.14
2019-06-26T00:23:13.181Z,75.42
2019-06-26T00:24:13.171Z,75.82
2019-06-26T00:25:13.182Z,75.82
2019-06-26T00:26:13.166Z,75.52
2019-06-26T00:27:13.140Z,75.32
2019-06-26T00:28:13.128Z,75.72
2019-06-26T00:29:13.120Z,75.52
2019-06-26T00:30:13.129Z,75.72
2019-06-26T00:31:13.098Z,75.72
2019-06-26T00:32:13.087Z,76.02
2019-06-26T00:33:13.075Z,76.12
2019-06-26T00:34:13.066Z,76.02
2019-06-26T00:35:13.092Z,76.12
2019-06-26T00:36:13.052Z,75.85
2019-06-26T00:37:13.035Z,76.55
2019-06-26T00:38:13.023Z,76.65
2019-06-26T00:39:13.019Z,76.25
2019-06-26T00:40:13.026Z,76.95
2019-06-26T00:41:12.990Z,77.34
2019-06-26T00:42:12.982Z,76.55
2019-06-26T00:43:12.969Z,76.06
2019-06-26T00:44:12.968Z,77.15
2019-06-26T00:45:12.949Z,77.05
2019-06-26T00:46:12.956Z,77.34
2019-06-26T00:47:12.929Z,77.05
2019-06-26T00:48:12.921Z,77.05
2019-06-26T00:49:12.907Z,76.95
2019-06-26T00:50:12.899Z,77.15
2019-06-26T00:51:12.906Z,77.05
2019-06-26T00:52:12.876Z,77.64
2019-06-26T00:53:12.873Z,77.05
2019-06-26T00:54:12.853Z,77.45
2019-06-26T00:55:12.865Z,77.05
2019-06-26T00:56:12.851Z,76.75
2019-06-26T00:57:12.835Z,77.15
2019-06-26T00:58:12.814Z,77.15
2019-06-26T00:59:12.802Z,77.55
2019-06-26T01:00:12.789Z,77.05
2019-06-26T01:01:12.797Z,77.15
2019-06-26T01:02:12.798Z,77.34
2019-06-26T01:03:12.758Z,77.68
2019-06-26T01:04:12.759Z,77.38
2019-06-26T01:05:12.736Z,77.98
2019-06-26T01:06:12.751Z,77.09
2019-06-26T01:07:12.715Z,78.44
2019-06-26T01:08:12.709Z,78.67
2019-06-26T01:09:12.694Z,78.18
2019-06-26T01:10:12.684Z,76.98
2019-06-26T01:11:12.705Z,78.48
2019-06-26T01:12:12.665Z,78.97
2019-06-26T01:13:12.655Z,78.88
2019-06-26T01:14:12.646Z,78.88
2019-06-26T01:15:12.634Z,78.97
2019-06-26T01:16:12.643Z,79.17
2019-06-26T01:17:12.614Z,79.37
2019-06-26T01:18:12.599Z,80.07
2019-06-26T01:19:12.590Z,79.57
2019-06-26T01:20:12.595Z,79.71
2019-06-26T01:21:12.574Z,79.51
2019-06-26T01:22:12.573Z,79.91
2019-06-26T01:23:12.593Z,79.91
2019-06-26T01:24:12.558Z,79.91
2019-06-26T01:25:12.529Z,80.60
2019-06-26T01:26:13.303Z,80.80
2019-06-26T01:27:12.528Z,81.01
2019-06-26T01:28:12.506Z,80.11
2019-06-26T01:29:12.481Z,80.71
2019-06-26T01:30:12.469Z,80.21
2019-06-26T01:31:12.461Z,80.80
2019-06-26T01:32:12.470Z,81.90
2019-06-26T01:33:12.457Z,80.84
2019-06-26T01:34:12.429Z,81.54
2019-06-26T01:35:12.419Z,82.34
2019-06-26T01:36:12.410Z,82.43
2019-06-26T01:37:12.426Z,81.04
2019-06-26T01:38:12.387Z,82.93
2019-06-26T01:39:12.374Z,82.73
2019-06-26T01:40:12.368Z,82.87
2019-06-26T01:41:12.361Z,82.18
2019-06-26T01:42:12.373Z,82.67
2019-06-26T01:43:12.332Z,82.78
2019-06-26T01:44:15.279Z,83.17
2019-06-26T01:45:12.310Z,82.57
2019-06-26T01:46:12.317Z,82.18
2019-06-26T01:47:12.309Z,82.97
2019-06-26T01:48:12.280Z,82.48
2019-06-26T01:49:12.272Z,83.17
2019-06-26T01:50:12.257Z,82.28
2019-06-26T01:51:12.257Z,82.78
2019-06-26T01:52:12.256Z,81.68
2019-06-26T01:53:12.224Z,82.07
2019-06-26T01:54:12.212Z,82.57
2019-06-26T01:55:12.209Z,82.28
2019-06-26T01:56:12.199Z,82.67
2019-06-26T01:57:12.203Z,82.28
2019-06-26T01:58:12.178Z,81.88
2019-06-26T01:59:12.156Z,82.67
2019-06-26T02:00:12.162Z,81.77
2019-06-26T02:01:12.140Z,81.88
2019-06-26T02:02:12.125Z,82.18
2019-06-26T02:03:12.143Z,82.48
2019-06-26T02:04:15.486Z,82.28
2019-06-26T02:05:12.122Z,82.71
2019-06-26T02:06:12.092Z,81.77
2019-06-26T02:07:12.071Z,82.12
2019-06-26T02:08:12.103Z,83.21
2019-06-26T02:09:12.048Z,83.21
2019-06-26T02:10:12.043Z,83.41
2019-06-26T02:11:12.033Z,83.81
2019-06-26T02:12:12.028Z,83.11
2019-06-26T02:13:12.393Z,83.55
2019-06-26T02:14:12.010Z,84.21
2019-06-26T02:15:11.985Z,83.55
2019-06-26T02:16:12.015Z,84.25
2019-06-26T02:17:11.963Z,83.61
2019-06-26T02:18:11.964Z,82.45
2019-06-26T02:19:11.960Z,82.95
2019-06-26T02:20:11.939Z,84.05
2019-06-26T02:21:11.930Z,83.25
2019-06-26T02:22:11.910Z,83.35
2019-06-26T02:23:11.897Z,83.65
2019-06-26T02:24:11.924Z,83.35
2019-06-26T02:25:11.876Z,83.65
2019-06-26T02:26:11.880Z,83.35
2019-06-26T02:27:11.874Z,83.15
2019-06-26T02:28:11.844Z,83.35
2019-06-26T02:29:11.866Z,84.25
2019-06-26T02:30:11.831Z,83.45
2019-06-26T02:31:11.815Z,83.11
2019-06-26T02:32:11.803Z,82.15
2019-06-26T02:33:11.793Z,80.36
2019-06-26T02:34:11.822Z,81.26
2019-06-26T02:35:11.768Z,81.06
2019-06-26T02:36:11.760Z,82.06
2019-06-26T02:37:11.750Z,82.35
2019-06-26T02:38:11.753Z,82.75
2019-06-26T02:39:11.745Z,82.15
2019-06-26T02:40:11.721Z,82.35
2019-06-26T02:41:11.705Z,81.06
2019-06-26T02:42:11.695Z,82.35
2019-06-26T02:43:11.685Z,82.45
2019-06-26T02:44:11.690Z,82.35
2019-06-26T02:45:11.659Z,82.56
2019-06-26T02:46:11.652Z,82.35
2019-06-26T02:47:19.630Z,82.65
2019-06-26T02:48:12.626Z,82.15
2019-06-26T02:49:11.635Z,83.25
2019-06-26T02:50:11.610Z,82.86
2019-06-26T02:51:11.598Z,83.19
2019-06-26T02:52:11.583Z,83.00
2019-06-26T02:53:11.583Z,83.59
2019-06-26T02:54:11.582Z,82.79
2019-06-26T02:55:11.551Z,83.29
2019-06-26T02:56:11.580Z,82.59
2019-06-26T02:57:11.534Z,83.29
2019-06-26T02:58:11.538Z,83.39
2019-06-26T02:59:11.525Z,83.19
2019-06-26T03:00:11.501Z,82.79
2019-06-26T03:01:11.500Z,83.19
2019-06-26T03:02:11.475Z,82.89
2019-06-26T03:03:11.473Z,82.50
2019-06-26T03:04:11.524Z,82.69
2019-06-26T03:05:11.443Z,83.29
2019-06-26T03:06:11.432Z,83.19
2019-06-26T03:07:11.420Z,82.89
2019-06-26T03:08:11.419Z,82.29
2019-06-26T03:09:11.436Z,82.79
2019-06-26T03:10:11.392Z,83.19
2019-06-26T03:11:11.388Z,84.29
2019-06-26T03:12:11.385Z,83.00
2019-06-26T03:13:11.402Z,84.29
2019-06-26T03:14:11.383Z,83.99
2019-06-26T03:15:11.336Z,83.49
2019-06-26T03:16:11.340Z,84.53
2019-06-26T03:17:11.321Z,83.83
2019-06-26T03:18:11.304Z,84.43
2019-06-26T03:19:24.022Z,84.33
2019-06-26T03:21:55.641Z,84.63
2019-06-26T03:24:39.762Z,84.13
2019-06-26T03:29:08.579Z,84.33
2019-06-26T03:33:10.401Z,85.33
2019-06-26T03:35:27.384Z,83.83
2019-06-26T03:36:33.830Z,85.13
2019-06-26T03:39:52.455Z,84.53
2019-06-26T03:40:52.360Z,84.13
2019-06-26T03:41:52.500Z,85.03
2019-06-26T03:42:52.332Z,83.93
2019-06-26T03:43:52.319Z,84.43
2019-06-26T03:44:52.326Z,84.53
2019-06-26T03:45:52.401Z,84.63
2019-06-26T03:46:52.294Z,83.53
2019-06-26T03:47:52.278Z,83.93
2019-06-26T03:48:52.264Z,84.53
2019-06-26T03:49:52.279Z,84.93
2019-06-26T03:50:52.244Z,84.73
2019-06-26T03:51:52.239Z,84.83
2019-06-26T03:52:52.225Z,84.63
2019-06-26T03:53:52.229Z,83.93
2019-06-26T03:54:52.235Z,85.42
2019-06-26T03:55:52.197Z,84.73
2019-06-26T03:56:52.181Z,84.43
2019-06-26T03:57:52.170Z,84.93
2019-06-26T03:58:52.171Z,84.93
2019-06-26T03:59:52.169Z,86.17
2019-06-26T04:00:52.137Z,85.57
2019-06-26T04:01:52.124Z,85.87
2019-06-26T04:02:52.128Z,85.27
2019-06-26T04:03:52.135Z,85.97
2019-06-26T04:04:52.113Z,86.47
2019-06-26T04:05:52.097Z,87.37
2019-06-26T04:06:52.076Z,87.27
2019-06-26T04:07:52.075Z,86.97
2019-06-26T04:08:52.048Z,86.71
2019-06-26T04:09:52.057Z,86.36
2019-06-26T04:10:52.033Z,87.27
2019-06-26T04:11:52.026Z,86.77
2019-06-26T04:12:52.111Z,86.87
2019-06-26T04:13:51.996Z,86.87
2019-06-26T04:14:52.014Z,85.47
2019-06-26T04:15:51.989Z,85.97
2019-06-26T04:16:52.002Z,84.27
2019-06-26T04:17:51.969Z,86.27
2019-06-26T04:18:52.009Z,86.77
2019-06-26T04:19:51.938Z,85.47
2019-06-26T04:20:51.949Z,85.27
2019-06-26T04:21:51.923Z,86.07
2019-06-26T04:22:51.905Z,85.37
2019-06-26T04:52:00.532Z,83.93
2019-06-26T04:53:00.134Z,84.63
2019-06-26T04:54:00.251Z,84.59
2019-06-26T04:54:59.754Z,84.23
2019-06-26T04:55:59.726Z,84.03
2019-06-26T04:56:59.927Z,83.43
2019-06-26T04:57:59.701Z,84.33
2019-06-26T05:00:24.967Z,84.23
2019-06-26T05:01:18.712Z,84.43
2019-06-26T05:02:18.736Z,84.23
2019-06-26T05:03:25.476Z,83.83
2019-06-26T05:11:21.357Z,84.39
2019-06-26T05:12:21.516Z,84.19
2019-06-26T05:13:21.447Z,84.49
2019-06-26T05:14:21.251Z,84.79
2019-06-26T05:15:21.181Z,81.30
2019-06-26T05:16:21.258Z,83.29
2019-06-26T05:17:21.222Z,83.09
2019-06-26T05:18:21.193Z,84.29
2019-06-26T05:19:21.163Z,83.00
2019-06-26T05:20:21.163Z,82.59
2019-06-26T05:21:21.118Z,83.19
2019-06-26T05:22:21.132Z,82.59
2019-06-26T05:23:21.088Z,83.19
2019-06-26T05:24:21.126Z,84.45
2019-06-26T05:25:21.128Z,84.39
2019-06-26T05:26:21.090Z,84.39
2019-06-26T05:27:21.112Z,82.89
2019-06-26T05:28:21.062Z,83.69
2019-06-26T05:29:21.101Z,84.19
2019-06-26T05:30:21.063Z,83.79
2019-06-26T05:31:21.029Z,84.05
2019-06-26T05:32:21.039Z,82.65
2019-06-26T05:33:20.995Z,83.65
2019-06-26T05:34:21.032Z,83.25
2019-06-26T05:35:20.970Z,83.95
2019-06-26T05:36:21.090Z,82.15
2019-06-26T05:37:20.980Z,82.35
2019-06-26T05:38:20.981Z,82.45
2019-06-26T05:39:20.914Z,82.35
2019-06-26T05:40:20.963Z,82.86
2019-06-26T05:41:20.974Z,82.86
2019-06-26T05:42:20.908Z,83.45
2019-06-26T05:43:20.998Z,83.35
2019-06-26T05:44:20.900Z,82.95
2019-06-26T05:45:20.944Z,82.86
2019-06-26T05:46:30.592Z,83.95
2019-06-26T05:47:22.244Z,83.25
2019-06-26T05:48:20.827Z,82.56
2019-06-26T05:49:20.852Z,83.25
2019-06-26T05:50:20.851Z,82.86
2019-06-26T05:52:32.378Z,83.15
2019-06-26T05:53:32.192Z,83.21
2019-06-26T05:54:32.336Z,83.01
2019-06-26T05:55:32.089Z,83.81
2019-06-26T05:56:32.141Z,82.81
2019-06-26T05:57:32.063Z,84.21
2019-06-26T05:58:32.046Z,83.11
2019-06-26T05:59:32.053Z,83.17
2019-06-26T06:00:41.038Z,82.92
2019-06-26T06:01:32.177Z,81.77
2019-06-26T06:02:32.269Z,82.87
2019-06-26T06:03:41.746Z,82.48
2019-06-26T06:04:32.108Z,82.48
2019-06-26T06:05:32.230Z,78.85
2019-06-26T06:06:41.598Z,78.25
2019-06-26T06:07:32.966Z,80.84
2019-06-26T06:08:39.697Z,80.05
2019-06-26T06:09:32.067Z,75.67
2019-06-26T06:10:32.189Z,79.41
2019-06-26T06:11:31.974Z,79.51
2019-06-26T06:12:31.950Z,79.31
2019-06-26T06:13:31.888Z,78.31
2019-06-26T06:14:31.950Z,79.51
2019-06-26T06:15:31.871Z,78.91
2019-06-26T06:16:46.234Z,77.02
2019-06-26T06:17:32.881Z,77.02
2019-06-26T06:18:31.831Z,76.68
2019-06-26T06:19:31.831Z,74.69
2019-06-26T06:20:31.821Z,76.98
2019-06-26T06:21:31.821Z,77.78
2019-06-26T06:22:31.798Z,76.55
2019-06-26T06:23:31.788Z,75.99
2019-06-26T06:24:31.809Z,76.35
2019-06-26T06:25:31.762Z,75.95
2019-06-26T06:26:31.769Z,75.36
2019-06-26T06:27:31.734Z,74.76
2019-06-26T06:28:31.728Z,74.96
2019-06-26T06:29:31.721Z,76.06
2019-06-26T06:30:31.703Z,74.26
2019-06-26T06:31:31.820Z,74.52
2019-06-26T06:32:31.683Z,73.54
2019-06-26T06:33:31.688Z,74.33
2019-06-26T06:34:31.657Z,71.25
2019-06-26T06:35:31.644Z,74.73
2019-06-26T06:36:31.634Z,74.33
2019-06-26T06:37:31.658Z,74.89
2019-06-26T06:38:31.611Z,74.19
2019-06-26T06:39:31.605Z,74.69
2019-06-26T06:40:31.594Z,74.29
2019-06-26T06:41:31.576Z,72.97
2019-06-26T06:42:31.585Z,74.55
2019-06-26T06:43:31.609Z,74.46
2019-06-26T06:44:31.548Z,72.97
2019-06-26T06:45:31.575Z,72.37
2019-06-26T06:46:31.526Z,72.73
2019-06-26T06:47:31.546Z,73.03
2019-06-26T06:48:31.506Z,72.53
2019-06-26T06:49:31.491Z,72.24
2019-06-26T06:50:31.488Z,70.51
2019-06-26T06:51:31.474Z,71.21
2019-06-26T06:52:31.480Z,70.91
2019-06-26T06:53:31.452Z,71.11
2019-06-26T06:54:31.440Z,71.61
2019-06-26T06:55:31.425Z,70.18
2019-06-26T06:56:31.425Z,68.73
2019-06-26T06:57:31.426Z,71.31
2019-06-26T06:58:31.399Z,68.80
2019-06-26T06:59:31.381Z,69.09
2019-06-26T07:00:31.373Z,68.90
2019-06-26T07:01:31.371Z,69.13
2019-06-26T07:02:31.376Z,69.39
2019-06-26T07:03:31.340Z,69.49
2019-06-26T07:04:31.332Z,69.29
2019-06-26T07:05:31.318Z,70.28
2019-06-26T07:06:31.314Z,69.46
2019-06-26T07:07:31.298Z,69.85
2019-06-26T07:08:31.312Z,68.37
2019-06-26T07:09:31.279Z,69.69
2019-06-26T07:10:31.278Z,70.65
2019-06-26T07:11:31.263Z,70.35
2019-06-26T07:12:31.261Z,69.56
2019-06-26T07:13:31.257Z,68.46
2019-06-26T07:14:31.227Z,68.07
2019-06-26T07:15:31.227Z,68.57
2019-06-26T07:16:31.205Z,68.13
2019-06-26T07:17:31.266Z,69.02
2019-06-26T07:18:31.210Z,68.33
2019-06-26T07:19:31.187Z,68.53
2019-06-26T07:20:31.162Z,65.66
2019-06-26T07:21:31.153Z,69.53
2019-06-26T07:22:31.147Z,68.40
2019-06-26T07:23:31.154Z,68.20
2019-06-26T07:24:31.135Z,68.40
2019-06-26T07:25:31.109Z,68.80
2019-06-26T07:26:31.252Z,67.18
2019-06-26T07:27:31.092Z,67.28
2019-06-26T07:28:31.167Z,67.77
2019-06-26T07:29:31.895Z,66.88
2019-06-26T07:30:31.057Z,66.88
2019-06-26T07:31:31.046Z,68.76
2019-06-26T07:32:31.041Z,67.38
2019-06-26T07:33:31.053Z,65.27
2019-06-26T07:34:31.060Z,64.48
2019-06-26T07:35:31.010Z,66.95
2019-06-26T07:36:31.020Z,65.27
2019-06-26T07:37:30.995Z,68.13
2019-06-26T07:38:31.007Z,65.96
2019-06-26T07:39:31.019Z,65.86
2019-06-26T07:40:30.957Z,66.13
2019-06-26T07:41:30.947Z,65.73
2019-06-26T07:42:30.987Z,63.59
2019-06-26T07:43:30.955Z,63.06
2019-06-26T07:44:30.929Z,65.44
2019-06-26T07:45:30.907Z,66.13
2019-06-26T07:46:30.913Z,63.85
2019-06-26T07:47:42.665Z,66.78
2019-06-26T07:48:31.924Z,64.61
2019-06-26T07:49:30.873Z,65.11
2019-06-26T07:50:32.580Z,63.33
2019-06-26T07:51:30.847Z,62.63
2019-06-26T07:52:30.834Z,63.92
2019-06-26T07:53:30.830Z,62.84
2019-06-26T07:54:30.860Z,62.54
2019-06-26T07:55:30.815Z,62.84
2019-06-26T07:56:30.794Z,63.62
2019-06-26T07:57:30.792Z,64.02
2019-06-26T07:58:30.777Z,62.04
2019-06-26T07:59:30.794Z,63.13
2019-06-26T08:00:31.769Z,62.31
2019-06-26T08:01:30.743Z,62.04
2019-06-26T08:02:39.011Z,61.62
2019-06-26T08:03:30.832Z,63.49
2019-06-26T08:04:39.334Z,60.93
2019-06-26T08:05:30.721Z,61.62
2019-06-26T08:06:38.247Z,61.82
2019-06-26T08:07:30.701Z,61.22
2019-06-26T08:08:30.885Z,61.52
2019-06-26T08:09:30.702Z,62.01
2019-06-26T08:10:30.650Z,61.22
2019-06-26T08:11:30.665Z,63.20
2019-06-26T08:12:30.631Z,63.40
2019-06-26T08:13:30.637Z,62.97
2019-06-26T08:14:30.633Z,62.38
2019-06-26T08:15:30.607Z,61.69
2019-06-26T08:16:34.284Z,61.88
2019-06-26T08:17:30.587Z,61.88
2019-06-26T08:18:30.656Z,61.85
2019-06-26T08:19:30.609Z,63.14
2019-06-26T08:20:30.569Z,61.56
2019-06-26T08:21:30.542Z,61.26
2019-06-26T08:22:30.528Z,61.07
2019-06-26T08:23:30.519Z,61.36
2019-06-26T08:24:30.539Z,60.28
2019-06-26T08:25:30.498Z,61.76
2019-06-26T08:26:30.492Z,62.15
2019-06-26T08:27:30.504Z,62.12
2019-06-26T08:28:30.474Z,61.24
2019-06-26T08:29:30.475Z,60.54
2019-06-26T08:30:30.444Z,59.95
2019-06-26T08:31:30.453Z,59.36
2019-06-26T08:32:30.424Z,59.26
2019-06-26T08:33:30.417Z,60.15
2019-06-26T08:34:30.449Z,61.04
2019-06-26T08:35:30.403Z,61.24
2019-06-26T08:36:30.410Z,60.44
2019-06-26T08:37:30.369Z,60.84
2019-06-26T08:38:30.359Z,60.44
2019-06-26T08:39:30.419Z,60.61
2019-06-26T08:40:30.333Z,60.31
2019-06-26T08:41:30.342Z,60.39
2019-06-26T08:42:30.315Z,60.68
2019-06-26T08:43:31.581Z,60.68
2019-06-26T08:44:30.312Z,60.29
2019-06-26T08:45:30.279Z,60.39
2019-06-26T08:46:30.271Z,59.01
2019-06-26T08:47:30.275Z,58.51
2019-06-26T08:48:39.370Z,60.16
2019-06-26T08:49:31.255Z,60.26
2019-06-26T08:50:30.247Z,59.50
2019-06-26T08:51:30.216Z,60.55
2019-06-26T08:52:30.199Z,58.88
2019-06-26T08:53:30.230Z,59.47
2019-06-26T08:54:30.209Z,58.95
2019-06-26T08:55:30.244Z,58.65
2019-06-26T08:56:30.166Z,59.25
2019-06-26T08:57:30.153Z,60.63
2019-06-26T08:58:30.139Z,58.33
2019-06-26T08:59:30.150Z,58.92
2019-06-26T09:00:30.112Z,60.99
2019-06-26T09:01:30.173Z,58.23
2019-06-26T09:02:30.099Z,57.74
2019-06-26T09:03:30.081Z,57.51
2019-06-26T09:04:30.097Z,55.97
2019-06-26T09:05:48.070Z,57.81
2019-06-26T09:06:31.095Z,57.03
2019-06-26T09:07:30.243Z,60.27
2019-06-26T09:08:30.179Z,57.62
2019-06-26T09:09:30.059Z,57.59
2019-06-26T09:10:30.016Z,55.82
2019-06-26T09:11:30.008Z,56.21
2019-06-26T09:12:30.024Z,57.78
2019-06-26T09:13:29.988Z,58.08
2019-06-26T09:14:29.983Z,55.23
2019-06-26T09:15:29.956Z,56.31
2019-06-26T09:16:29.948Z,55.89
2019-06-26T09:17:29.944Z,54.22
2019-06-26T09:18:35.420Z,54.54
2019-06-26T09:20:40.861Z,56.97
2019-06-26T09:21:41.017Z,53.44
2019-06-26T09:22:40.757Z,56.77
2019-06-26T09:23:40.711Z,55.47
2019-06-26T09:24:40.756Z,55.66
2019-06-26T09:25:40.746Z,55.57
2019-06-26T09:26:40.710Z,54.19
2019-06-26T09:27:40.694Z,55.47
2019-06-26T09:28:40.671Z,53.87
2019-06-26T09:29:40.680Z,56.32
2019-06-26T09:30:40.649Z,53.28
2019-06-26T09:31:40.626Z,53.67
2019-06-26T09:32:40.625Z,56.62
2019-06-26T09:33:40.718Z,56.92
2019-06-26T09:34:40.633Z,55.24
2019-06-26T09:35:40.620Z,55.91
2019-06-26T09:36:40.601Z,55.81
2019-06-26T09:37:40.568Z,55.81
2019-06-26T09:38:40.565Z,55.32
2019-06-26T09:39:40.586Z,54.24
2019-06-26T09:40:40.541Z,55.12
2019-06-26T09:41:40.561Z,56.10
2019-06-26T09:42:40.548Z,53.75
2019-06-26T09:43:40.513Z,54.33
2019-06-26T09:44:48.292Z,53.65
2019-06-26T09:45:40.703Z,53.26
2019-06-26T09:46:40.498Z,52.37
2019-06-26T09:47:40.479Z,53.65
2019-06-26T09:48:52.008Z,53.55
2019-06-26T09:49:41.483Z,55.10
2019-06-26T09:50:40.441Z,53.65
2019-06-26T09:51:40.453Z,53.58
2019-06-26T09:52:40.428Z,55.93
2019-06-26T09:53:47.196Z,54.14
2019-06-26T09:54:41.492Z,54.63
2019-06-26T09:55:40.393Z,52.59
2019-06-26T09:56:48.012Z,54.75
2019-06-26T09:57:40.505Z,54.66
2019-06-26T09:58:41.082Z,56.20
2019-06-26T09:59:40.400Z,55.71
2019-06-26T10:00:40.347Z,54.14
2019-06-26T10:01:40.328Z,54.11
2019-06-26T10:02:48.851Z,53.13
2019-06-26T10:03:40.354Z,53.53
2019-06-26T10:04:40.468Z,53.20
2019-06-26T10:05:47.902Z,53.99
2019-06-26T10:06:40.358Z,52.23
2019-06-26T10:07:40.479Z,52.42
2019-06-26T10:08:40.289Z,53.69
2019-06-26T10:09:40.297Z,54.38
2019-06-26T10:10:40.237Z,52.98
2019-06-26T10:11:40.227Z,51.93
2019-06-26T10:12:40.218Z,51.93
2019-06-26T10:13:40.203Z,52.10
2019-06-26T10:14:47.390Z,52.30
2019-06-26T10:15:41.220Z,53.18
2019-06-26T10:16:40.179Z,53.28
2019-06-26T10:17:40.166Z,53.38
2019-06-26T10:18:40.183Z,54.03
2019-06-26T10:19:40.172Z,53.35
2019-06-26T10:20:40.146Z,53.77
2019-06-26T10:21:40.132Z,52.86
2019-06-26T10:22:40.117Z,51.00
2019-06-26T10:23:40.122Z,53.55
2019-06-26T10:24:40.124Z,51.39
2019-06-26T10:25:40.089Z,51.39
2019-06-26T10:26:40.079Z,47.97
2019-06-26T10:27:40.084Z,47.97
2019-06-26T10:28:40.060Z,48.87
2019-06-26T10:29:40.099Z,51.81
2019-06-26T10:30:40.055Z,53.45
2019-06-26T10:31:47.813Z,51.42
2019-06-26T10:32:40.123Z,52.47
2019-06-26T10:33:40.078Z,50.90
2019-06-26T10:34:41.581Z,51.49
2019-06-26T10:35:40.083Z,52.96
2019-06-26T10:36:39.993Z,52.96
2019-06-26T10:37:40.198Z,51.10
2019-06-26T10:38:40.031Z,50.39
2019-06-26T10:39:40.532Z,51.68
2019-06-26T10:40:39.986Z,52.05
2019-06-26T10:41:40.599Z,51.66
2019-06-26T10:42:40.058Z,52.15
2019-06-26T10:43:39.952Z,47.94
2019-06-26T10:44:39.935Z,49.99
2019-06-26T10:45:39.906Z,50.39
2019-06-26T10:46:39.904Z,51.37
2019-06-26T10:47:40.255Z,52.15
2019-06-26T10:48:39.988Z,53.62
2019-06-26T10:49:40.348Z,53.39
2019-06-26T10:50:49.919Z,51.64
2019-06-26T10:52:51.115Z,50.49
2019-06-26T10:53:58.347Z,51.76
2019-06-26T10:54:50.627Z,51.15
2019-06-26T10:55:58.286Z,50.10
2019-06-26T10:56:50.586Z,50.29
2019-06-26T10:57:58.150Z,49.90
2019-06-26T10:58:50.542Z,49.97
2019-06-26T10:59:50.625Z,49.38
2019-06-26T11:00:50.518Z,50.46
2019-06-26T11:01:50.477Z,50.56
2019-06-26T11:02:58.337Z,51.56
2019-06-26T11:03:50.543Z,50.37
2019-06-26T11:04:58.172Z,49.97
2019-06-26T11:05:50.527Z,49.19
2019-06-26T11:06:51.915Z,49.80
2019-06-26T11:07:50.474Z,49.31
2019-06-26T11:08:50.456Z,53.03
2019-06-26T11:09:50.419Z,51.37
2019-06-26T11:10:58.604Z,49.70
2019-06-26T11:11:50.807Z,51.07
2019-06-26T11:12:58.049Z,51.07
2019-06-26T11:13:50.502Z,50.39
2019-06-26T11:15:01.233Z,49.77
2019-06-26T11:15:50.388Z,50.98
2019-06-26T11:16:51.330Z,50.59
2019-06-26T11:17:50.322Z,50.68
2019-06-26T11:18:50.313Z,50.49
2019-06-26T11:19:57.953Z,51.56
2019-06-26T11:20:50.364Z,50.88
2019-06-26T11:21:50.484Z,50.29
2019-06-26T11:22:57.955Z,50.10
2019-06-26T11:23:50.302Z,49.80
2019-06-26T11:24:50.480Z,51.17
2019-06-26T11:25:51.642Z,50.10
2019-06-26T11:26:50.214Z,52.32
2019-06-26T11:27:50.272Z,51.25
2019-06-26T11:28:50.205Z,49.09
2019-06-26T11:29:50.250Z,48.19
2019-06-26T11:30:58.468Z,47.80
2019-06-26T11:33:07.327Z,49.75
2019-06-26T11:34:07.489Z,50.54
2019-06-26T11:35:07.593Z,49.65
2019-06-26T11:36:07.196Z,49.82
2019-06-26T11:37:15.083Z,50.61
2019-06-26T11:38:07.363Z,49.07
2019-06-26T11:39:15.011Z,47.60
2019-06-26T11:40:07.243Z,49.26
2019-06-26T11:41:14.719Z,47.11
2019-06-26T11:42:07.191Z,47.97
2019-06-26T11:43:14.798Z,47.97
2019-06-26T11:44:08.058Z,49.43
2019-06-26T11:45:16.819Z,48.07
2019-06-26T11:46:07.151Z,48.46
2019-06-26T11:47:14.705Z,47.38
2019-06-26T11:48:07.117Z,48.65
2019-06-26T11:49:07.188Z,47.67
2019-06-26T11:50:07.135Z,46.31
2019-06-26T11:51:07.023Z,47.48
2019-06-26T11:52:14.736Z,44.55
2019-06-26T11:53:16.417Z,44.48
2019-06-26T11:54:07.127Z,47.38
2019-06-26T11:55:07.752Z,46.92
2019-06-26T11:56:06.973Z,49.07
2019-06-26T11:57:08.434Z,49.65
2019-06-26T11:58:07.063Z,49.55
2019-06-26T11:59:06.940Z,47.21
2019-06-26T12:00:14.708Z,44.48
2019-06-26T12:01:07.046Z,50.54
2019-06-26T12:02:07.048Z,48.38
2019-06-26T12:03:06.910Z,48.09
2019-06-26T12:04:06.889Z,49.36
2019-06-26T12:05:07.793Z,49.65
2019-06-26T12:06:18.876Z,49.85
2019-06-26T12:07:06.969Z,51.00
2019-06-26T12:08:08.339Z,50.42
2019-06-26T12:09:06.848Z,45.53
2019-06-26T12:10:06.948Z,46.70
2019-06-26T12:11:06.815Z,48.26
2019-06-26T12:12:06.835Z,49.82
2019-06-26T12:13:06.841Z,49.14
2019-06-26T12:14:06.797Z,46.31
2019-06-26T12:15:14.491Z,50.22
2019-06-26T12:16:06.837Z,47.97
2019-06-26T12:17:14.379Z,46.11
2019-06-26T12:18:06.805Z,47.97
2019-06-26T12:19:06.837Z,46.50
2019-06-26T12:20:19.144Z,45.92
2019-06-26T12:21:07.781Z,46.89
2019-06-26T12:22:07.141Z,48.94
2019-06-26T12:23:06.714Z,48.77
2019-06-26T12:24:06.727Z,49.55
2019-06-26T12:25:06.791Z,48.94
2019-06-26T12:26:06.737Z,47.99
2019-06-26T12:27:06.664Z,49.36
2019-06-26T12:28:06.672Z,49.85
2019-06-26T12:29:06.636Z,46.72
2019-06-26T12:30:06.630Z,47.11
2019-06-26T12:31:14.467Z,50.17
2019-06-26T12:32:06.793Z,51.73
2019-06-26T12:33:14.215Z,48.02
2019-06-26T12:34:06.640Z,48.38
2019-06-26T12:35:06.733Z,47.63
2019-06-26T12:36:06.580Z,51.44
2019-06-26T12:37:06.618Z,48.99
2019-06-26T12:38:14.154Z,52.32
2019-06-26T12:39:06.636Z,49.77
2019-06-26T12:40:14.121Z,48.90
2019-06-26T12:41:06.595Z,50.73
2019-06-26T12:42:15.208Z,52.29
2019-06-26T12:43:06.558Z,50.34
2019-06-26T12:44:14.141Z,50.54
2019-06-26T12:45:06.851Z,49.36
2019-06-26T12:46:17.210Z,51.15
2019-06-26T12:47:06.547Z,50.93
2019-06-26T12:48:07.688Z,50.66
2019-06-26T12:49:06.441Z,51.73
2019-06-26T12:50:06.439Z,51.15
2019-06-26T12:51:14.075Z,49.68
2019-06-26T12:52:06.509Z,50.63
2019-06-26T12:53:06.643Z,49.65
2019-06-26T12:54:06.432Z,49.77
2019-06-26T12:55:06.385Z,50.05
2019-06-26T12:56:14.026Z,49.95
2019-06-26T12:57:06.665Z,50.24
2019-06-26T12:58:13.163Z,50.44
2019-06-26T12:59:07.366Z,49.63
2019-06-26T13:00:06.328Z,47.97
2019-06-26T13:01:13.956Z,50.15
2019-06-26T13:02:06.471Z,48.38
2019-06-26T13:03:14.013Z,49.75
2019-06-26T13:04:06.360Z,47.11
2019-06-26T13:05:06.375Z,47.11
2019-06-26T13:06:13.940Z,47.60
2019-06-26T13:07:06.435Z,47.41
2019-06-26T13:08:06.819Z,46.14
2019-06-26T13:09:06.277Z,46.14
2019-06-26T13:10:07.563Z,47.24
2019-06-26T13:11:13.991Z,47.33
2019-06-26T13:12:06.371Z,46.62
2019-06-26T13:14:23.251Z,49.48
2019-06-26T13:15:30.823Z,50.66
2019-06-26T13:16:30.871Z,50.27
2019-06-26T13:17:30.827Z,48.60
2019-06-26T13:20:09.320Z,46.84
2019-06-26T13:21:13.088Z,46.65
2019-06-26T13:22:05.575Z,48.80
2019-06-26T13:23:14.877Z,48.11
2019-06-26T13:24:05.456Z,49.46
2019-06-26T13:25:15.810Z,46.82
2019-06-26T13:26:05.481Z,46.92
2019-06-26T13:27:13.021Z,48.09
2019-06-26T13:28:05.432Z,47.89
2019-06-26T13:29:12.969Z,50.17
2019-06-26T13:30:14.541Z,49.09
2019-06-26T13:31:13.072Z,49.68
2019-06-26T13:32:05.409Z,50.24
2019-06-26T13:33:12.958Z,50.46
2019-06-26T13:34:05.375Z,48.70
2019-06-26T13:35:12.913Z,47.14
2019-06-26T13:36:05.362Z,49.51
2019-06-26T13:37:12.988Z,50.29
2019-06-26T13:38:05.289Z,48.33
2019-06-26T13:39:12.892Z,49.11
2019-06-26T13:40:05.259Z,48.72
2019-06-26T13:41:12.882Z,48.24
2019-06-26T13:42:05.272Z,48.63
2019-06-26T13:43:05.392Z,52.25
2019-06-26T13:44:12.819Z,49.97
2019-06-26T13:45:05.237Z,48.50
2019-06-26T13:46:12.817Z,48.90
2019-06-26T13:47:14.421Z,48.11
2019-06-26T13:48:12.760Z,49.58
2019-06-26T13:49:05.188Z,48.72
2019-06-26T13:50:12.794Z,47.43